Terminal Aerodrome Forecast
Issued by NWS Sioux Falls, SD

Home | Current Version | Previous Version | Graphics & Text | Print | Product List | Glossary Off
Versions: 1 2 3 4 5 6 7 8 9 10 11 12 13 14 15 16 17 18 19

000
FTUS43 KFSD 241634 AAC
TAFFSD
TAF AMD
KFSD 241634Z 2417/2512 14012G18KT 4SM BR OVC010
     FM241800 14012G18KT 4SM -RA BR OVC012
      TEMPO 2418/2422 2SM -RA BR OVC009
     FM242200 13012KT P6SM OVC015
     FM250130 14008KT P6SM SCT015
     FM251100 30014KT P6SM BKN020=

USA.gov is the U.S. government's official web portal to all federal, state and local government web resources and services.